sensor_id;sensor_type;location;lat;lon;timestamp;temperature;humidity
20856;DHT22;63058;49.424;8.420;2023-07-28T00:01:24;21.30;99.90
20856;DHT22;63058;49.424;8.420;2023-07-28T00:03:49;21.40;99.90
20856;DHT22;63058;49.424;8.420;2023-07-28T00:06:15;21.40;99.90
20856;DHT22;63058;49.424;8.420;2023-07-28T00:08:41;21.40;99.90
20856;DHT22;63058;49.424;8.420;2023-07-28T00:11:14;21.40;99.90
20856;DHT22;63058;49.424;8.420;2023-07-28T00:13:40;21.40;99.90
20856;DHT22;63058;49.424;8.420;2023-07-28T00:16:06;21.40;99.90
20856;DHT22;63058;49.424;8.420;2023-07-28T00:18:32;21.40;99.90
20856;DHT22;63058;49.424;8.420;2023-07-28T00:20:58;21.50;99.90
20856;DHT22;63058;49.424;8.420;2023-07-28T00:23:24;21.50;99.90
20856;DHT22;63058;49.424;8.420;2023-07-28T00:25:50;21.50;99.90
20856;DHT22;63058;49.424;8.420;2023-07-28T00:28:15;21.50;99.90
20856;DHT22;63058;49.424;8.420;2023-07-28T00:30:41;21.50;99.90
20856;DHT22;63058;49.424;8.420;2023-07-28T00:33:07;21.50;99.90
20856;DHT22;63058;49.424;8.420;2023-07-28T00:35:32;21.50;99.90
20856;DHT22;63058;49.424;8.420;2023-07-28T00:37:58;21.50;99.90
20856;DHT22;63058;49.424;8.420;2023-07-28T00:40:24;21.50;99.90
20856;DHT22;63058;49.424;8.420;2023-07-28T00:42:50;21.50;99.90
20856;DHT22;63058;49.424;8.420;2023-07-28T00:45:15;21.50;99.90
20856;DHT22;63058;49.424;8.420;2023-07-28T00:47:41;21.50;99.90
20856;DHT22;63058;49.424;8.420;2023-07-28T00:50:10;21.50;99.90
20856;DHT22;63058;49.424;8.420;2023-07-28T00:52:37;21.50;99.90
20856;DHT22;63058;49.424;8.420;2023-07-28T00:55:06;21.50;99.90
20856;DHT22;63058;49.424;8.420;2023-07-28T00:57:33;21.50;99.90
20856;DHT22;63058;49.424;8.420;2023-07-28T00:59:59;21.50;99.90
20856;DHT22;63058;49.424;8.420;2023-07-28T01:02:25;21.50;99.90
20856;DHT22;63058;49.424;8.420;2023-07-28T01:04:51;21.50;99.90
20856;DHT22;63058;49.424;8.420;2023-07-28T01:07:34;21.50;99.90
20856;DHT22;63058;49.424;8.420;2023-07-28T01:10:06;21.50;99.90
20856;DHT22;63058;49.424;8.420;2023-07-28T01:12:34;21.50;99.90
20856;DHT22;63058;49.424;8.420;2023-07-28T01:14:59;21.40;99.90
20856;DHT22;63058;49.424;8.420;2023-07-28T01:17:25;21.40;99.90
20856;DHT22;63058;49.424;8.420;2023-07-28T01:19:52;21.40;99.90
20856;DHT22;63058;49.424;8.420;2023-07-28T01:25:28;21.40;99.90
20856;DHT22;63058;49.424;8.420;2023-07-28T01:27:58;21.40;99.90
20856;DHT22;63058;49.424;8.420;2023-07-28T01:30:25;21.50;99.90
20856;DHT22;63058;49.424;8.420;2023-07-28T01:32:54;21.50;99.90
20856;DHT22;63058;49.424;8.420;2023-07-28T01:35:22;21.40;99.90
20856;DHT22;63058;49.424;8.420;2023-07-28T01:37:47;21.50;99.90
20856;DHT22;63058;49.424;8.420;2023-07-28T01:40:17;21.50;99.90
20856;DHT22;63058;49.424;8.420;2023-07-28T01:42:43;21.50;99.90
20856;DHT22;63058;49.424;8.420;2023-07-28T01:45:09;21.50;99.90
20856;DHT22;63058;49.424;8.420;2023-07-28T01:47:34;21.50;99.90
20856;DHT22;63058;49.424;8.420;2023-07-28T01:50:00;21.50;99.90
20856;DHT22;63058;49.424;8.420;2023-07-28T01:52:26;21.50;99.90
20856;DHT22;63058;49.424;8.420;2023-07-28T01:54:51;21.50;99.90
20856;DHT22;63058;49.424;8.420;2023-07-28T01:57:17;21.50;99.90
20856;DHT22;63058;49.424;8.420;2023-07-28T01:59:43;21.50;99.90
20856;DHT22;63058;49.424;8.420;2023-07-28T02:02:08;21.50;99.90
20856;DHT22;63058;49.424;8.420;2023-07-28T02:04:34;21.50;99.90
20856;DHT22;63058;49.424;8.420;2023-07-28T02:07:00;21.50;99.90
20856;DHT22;63058;49.424;8.420;2023-07-28T02:09:25;21.50;99.90
20856;DHT22;63058;49.424;8.420;2023-07-28T02:11:52;21.50;99.90
20856;DHT22;63058;49.424;8.420;2023-07-28T02:14:17;21.50;99.90
20856;DHT22;63058;49.424;8.420;2023-07-28T02:16:43;21.50;99.90
20856;DHT22;63058;49.424;8.420;2023-07-28T02:19:09;21.50;99.90
20856;DHT22;63058;49.424;8.420;2023-07-28T02:21:34;21.60;99.90
20856;DHT22;63058;49.424;8.420;2023-07-28T02:24:00;21.50;99.90
20856;DHT22;63058;49.424;8.420;2023-07-28T02:26:26;21.60;99.90
20856;DHT22;63058;49.424;8.420;2023-07-28T02:28:51;21.60;99.90
20856;DHT22;63058;49.424;8.420;2023-07-28T02:31:17;21.50;99.90
20856;DHT22;63058;49.424;8.420;2023-07-28T02:33:43;21.60;99.90
20856;DHT22;63058;49.424;8.420;2023-07-28T02:36:08;21.60;99.90
20856;DHT22;63058;49.424;8.420;2023-07-28T02:38:34;21.60;99.90
20856;DHT22;63058;49.424;8.420;2023-07-28T02:40:59;21.60;99.90
20856;DHT22;63058;49.424;8.420;2023-07-28T02:43:25;21.60;99.90
20856;DHT22;63058;49.424;8.420;2023-07-28T02:45:55;21.60;99.90
20856;DHT22;63058;49.424;8.420;2023-07-28T02:48:21;21.50;99.90
20856;DHT22;63058;49.424;8.420;2023-07-28T02:50:50;21.50;99.90
20856;DHT22;63058;49.424;8.420;2023-07-28T02:53:16;21.40;99.90
20856;DHT22;63058;49.424;8.420;2023-07-28T02:55:46;21.40;99.90
20856;DHT22;63058;49.424;8.420;2023-07-28T02:58:13;21.30;99.90
20856;DHT22;63058;49.424;8.420;2023-07-28T03:00:39;21.20;99.90
20856;DHT22;63058;49.424;8.420;2023-07-28T03:03:05;21.20;99.90
20856;DHT22;63058;49.424;8.420;2023-07-28T03:05:32;21.20;99.90
20856;DHT22;63058;49.424;8.420;2023-07-28T03:07:58;21.10;99.90
20856;DHT22;63058;49.424;8.420;2023-07-28T03:10:24;21.10;99.90
20856;DHT22;63058;49.424;8.420;2023-07-28T03:12:50;21.00;99.90
20856;DHT22;63058;49.424;8.420;2023-07-28T03:15:15;21.00;99.90
20856;DHT22;63058;49.424;8.420;2023-07-28T03:17:41;20.90;99.90
20856;DHT22;63058;49.424;8.420;2023-07-28T03:20:08;20.90;99.90
20856;DHT22;63058;49.424;8.420;2023-07-28T03:22:34;20.90;99.90
20856;DHT22;63058;49.424;8.420;2023-07-28T03:24:59;20.80;99.90
20856;DHT22;63058;49.424;8.420;2023-07-28T03:27:25;20.80;99.90
20856;DHT22;63058;49.424;8.420;2023-07-28T03:29:51;20.70;99.90
20856;DHT22;63058;49.424;8.420;2023-07-28T03:32:17;20.70;99.90
20856;DHT22;63058;49.424;8.420;2023-07-28T03:34:42;20.70;99.90
20856;DHT22;63058;49.424;8.420;2023-07-28T03:37:08;20.60;99.90
20856;DHT22;63058;49.424;8.420;2023-07-28T03:39:34;20.60;99.90
20856;DHT22;63058;49.424;8.420;2023-07-28T03:42:00;20.60;99.90
20856;DHT22;63058;49.424;8.420;2023-07-28T03:44:25;20.60;99.90
20856;DHT22;63058;49.424;8.420;2023-07-28T03:46:51;20.60;99.90
20856;DHT22;63058;49.424;8.420;2023-07-28T03:49:17;20.60;99.90
20856;DHT22;63058;49.424;8.420;2023-07-28T03:51:43;20.60;99.90
20856;DHT22;63058;49.424;8.420;2023-07-28T03:54:08;20.60;99.90
20856;DHT22;63058;49.424;8.420;2023-07-28T03:56:34;20.60;99.90
20856;DHT22;63058;49.424;8.420;2023-07-28T03:59:00;20.60;99.90
20856;DHT22;63058;49.424;8.420;2023-07-28T04:01:25;20.60;99.90
20856;DHT22;63058;49.424;8.420;2023-07-28T04:03:51;20.60;99.90
20856;DHT22;63058;49.424;8.420;2023-07-28T04:06:16;20.60;99.90
20856;DHT22;63058;49.424;8.420;2023-07-28T04:08:42;20.60;99.90
20856;DHT22;63058;49.424;8.420;2023-07-28T04:11:08;20.60;99.90
20856;DHT22;63058;49.424;8.420;2023-07-28T04:13:34;20.60;99.90
20856;DHT22;63058;49.424;8.420;2023-07-28T04:16:00;20.60;99.90
20856;DHT22;63058;49.424;8.420;2023-07-28T04:18:26;20.60;99.90
20856;DHT22;63058;49.424;8.420;2023-07-28T04:20:51;20.60;99.90
20856;DHT22;63058;49.424;8.420;2023-07-28T04:23:17;20.60;99.90
20856;DHT22;63058;49.424;8.420;2023-07-28T04:25:43;20.50;99.90
20856;DHT22;63058;49.424;8.420;2023-07-28T04:28:08;20.50;99.90
20856;DHT22;63058;49.424;8.420;2023-07-28T04:30:34;20.50;99.90
20856;DHT22;63058;49.424;8.420;2023-07-28T04:33:00;20.40;99.90
20856;DHT22;63058;49.424;8.420;2023-07-28T04:35:26;20.50;99.90
20856;DHT22;63058;49.424;8.420;2023-07-28T04:37:51;20.40;99.90
20856;DHT22;63058;49.424;8.420;2023-07-28T04:40:17;20.40;99.90
20856;DHT22;63058;49.424;8.420;2023-07-28T04:42:42;20.50;99.90
20856;DHT22;63058;49.424;8.420;2023-07-28T04:45:08;20.50;99.90
20856;DHT22;63058;49.424;8.420;2023-07-28T04:47:34;20.50;99.90
20856;DHT22;63058;49.424;8.420;2023-07-28T04:50:00;20.60;99.90
20856;DHT22;63058;49.424;8.420;2023-07-28T04:52:25;20.60;99.90
20856;DHT22;63058;49.424;8.420;2023-07-28T04:54:51;20.60;99.90
20856;DHT22;63058;49.424;8.420;2023-07-28T04:57:19;20.60;99.90
20856;DHT22;63058;49.424;8.420;2023-07-28T04:59:44;20.60;99.90
20856;DHT22;63058;49.424;8.420;2023-07-28T05:02:10;20.60;99.90
20856;DHT22;63058;49.424;8.420;2023-07-28T05:04:36;20.60;99.90
20856;DHT22;63058;49.424;8.420;2023-07-28T05:07:02;20.60;99.90
20856;DHT22;63058;49.424;8.420;2023-07-28T05:09:28;20.60;99.90
20856;DHT22;63058;49.424;8.420;2023-07-28T05:11:54;20.60;99.90
20856;DHT22;63058;49.424;8.420;2023-07-28T05:14:20;20.60;99.90
20856;DHT22;63058;49.424;8.420;2023-07-28T05:16:46;20.50;99.90
20856;DHT22;63058;49.424;8.420;2023-07-28T05:19:12;20.50;99.90
20856;DHT22;63058;49.424;8.420;2023-07-28T05:21:38;20.60;99.90
20856;DHT22;63058;49.424;8.420;2023-07-28T05:24:04;20.60;99.90
20856;DHT22;63058;49.424;8.420;2023-07-28T05:26:30;20.60;99.90
20856;DHT22;63058;49.424;8.420;2023-07-28T05:28:55;20.60;99.90
20856;DHT22;63058;49.424;8.420;2023-07-28T05:31:21;20.70;99.90
20856;DHT22;63058;49.424;8.420;2023-07-28T05:33:47;20.70;99.90
20856;DHT22;63058;49.424;8.420;2023-07-28T05:36:13;20.70;99.90
20856;DHT22;63058;49.424;8.420;2023-07-28T05:38:38;20.80;99.90
20856;DHT22;63058;49.424;8.420;2023-07-28T05:41:04;20.80;99.90
20856;DHT22;63058;49.424;8.420;2023-07-28T05:43:31;20.90;99.90
20856;DHT22;63058;49.424;8.420;2023-07-28T05:45:58;20.90;99.90
20856;DHT22;63058;49.424;8.420;2023-07-28T05:48:23;20.90;99.90
20856;DHT22;63058;49.424;8.420;2023-07-28T05:50:49;21.00;99.90
20856;DHT22;63058;49.424;8.420;2023-07-28T05:53:16;20.90;99.90
20856;DHT22;63058;49.424;8.420;2023-07-28T05:55:43;21.00;99.90
20856;DHT22;63058;49.424;8.420;2023-07-28T05:58:09;21.00;99.90
20856;DHT22;63058;49.424;8.420;2023-07-28T06:00:34;21.00;99.90
20856;DHT22;63058;49.424;8.420;2023-07-28T06:03:00;21.00;99.90
20856;DHT22;63058;49.424;8.420;2023-07-28T06:05:25;21.10;99.90
20856;DHT22;63058;49.424;8.420;2023-07-28T06:07:52;21.10;99.90
20856;DHT22;63058;49.424;8.420;2023-07-28T06:10:17;21.10;99.90
20856;DHT22;63058;49.424;8.420;2023-07-28T06:12:43;21.20;99.90
20856;DHT22;63058;49.424;8.420;2023-07-28T06:15:09;21.20;99.90
20856;DHT22;63058;49.424;8.420;2023-07-28T06:17:35;21.30;99.90
20856;DHT22;63058;49.424;8.420;2023-07-28T06:20:00;21.30;99.90
20856;DHT22;63058;49.424;8.420;2023-07-28T06:22:26;21.40;99.90
20856;DHT22;63058;49.424;8.420;2023-07-28T06:24:52;21.40;99.90
20856;DHT22;63058;49.424;8.420;2023-07-28T06:27:17;21.40;99.90
20856;DHT22;63058;49.424;8.420;2023-07-28T06:29:44;21.50;99.90
20856;DHT22;63058;49.424;8.420;2023-07-28T06:32:10;21.50;99.90
20856;DHT22;63058;49.424;8.420;2023-07-28T06:34:36;21.50;99.90
20856;DHT22;63058;49.424;8.420;2023-07-28T06:37:02;21.50;99.90
20856;DHT22;63058;49.424;8.420;2023-07-28T06:39:27;21.50;99.90
20856;DHT22;63058;49.424;8.420;2023-07-28T06:41:55;21.50;99.90
20856;DHT22;63058;49.424;8.420;2023-07-28T06:44:21;21.60;99.90
20856;DHT22;63058;49.424;8.420;2023-07-28T06:46:46;21.70;99.90
20856;DHT22;63058;49.424;8.420;2023-07-28T06:49:13;21.70;99.90
20856;DHT22;63058;49.424;8.420;2023-07-28T06:51:38;21.70;99.90
20856;DHT22;63058;49.424;8.420;2023-07-28T06:54:04;21.80;99.90
20856;DHT22;63058;49.424;8.420;2023-07-28T06:56:32;21.80;99.90
20856;DHT22;63058;49.424;8.420;2023-07-28T06:58:58;21.90;99.90
20856;DHT22;63058;49.424;8.420;2023-07-28T07:01:23;21.90;99.90
20856;DHT22;63058;49.424;8.420;2023-07-28T07:03:49;21.90;99.90
20856;DHT22;63058;49.424;8.420;2023-07-28T07:06:14;22.00;99.90
20856;DHT22;63058;49.424;8.420;2023-07-28T07:08:40;22.00;99.90
20856;DHT22;63058;49.424;8.420;2023-07-28T07:11:06;22.00;99.90
20856;DHT22;63058;49.424;8.420;2023-07-28T07:13:31;22.10;99.90
20856;DHT22;63058;49.424;8.420;2023-07-28T07:15:57;22.10;99.90
20856;DHT22;63058;49.424;8.420;2023-07-28T07:18:23;22.20;99.90
20856;DHT22;63058;49.424;8.420;2023-07-28T07:20:48;22.20;99.90
20856;DHT22;63058;49.424;8.420;2023-07-28T07:23:14;22.30;99.90
20856;DHT22;63058;49.424;8.420;2023-07-28T07:25:40;22.30;99.90
20856;DHT22;63058;49.424;8.420;2023-07-28T07:28:05;22.30;99.90
20856;DHT22;63058;49.424;8.420;2023-07-28T07:30:34;22.40;99.90
20856;DHT22;63058;49.424;8.420;2023-07-28T07:33:00;22.50;99.90
20856;DHT22;63058;49.424;8.420;2023-07-28T07:35:26;22.60;99.90
20856;DHT22;63058;49.424;8.420;2023-07-28T07:37:51;22.70;99.90
20856;DHT22;63058;49.424;8.420;2023-07-28T07:40:17;22.80;99.90
20856;DHT22;63058;49.424;8.420;2023-07-28T07:42:47;22.80;99.90
20856;DHT22;63058;49.424;8.420;2023-07-28T07:45:13;22.90;99.90
20856;DHT22;63058;49.424;8.420;2023-07-28T07:47:40;23.00;99.90
20856;DHT22;63058;49.424;8.420;2023-07-28T07:50:07;23.10;99.90
20856;DHT22;63058;49.424;8.420;2023-07-28T07:52:36;23.20;99.90
20856;DHT22;63058;49.424;8.420;2023-07-28T07:55:03;23.30;99.90
20856;DHT22;63058;49.424;8.420;2023-07-28T07:57:29;23.40;99.90
20856;DHT22;63058;49.424;8.420;2023-07-28T07:59:57;23.50;99.90
20856;DHT22;63058;49.424;8.420;2023-07-28T08:02:22;23.50;99.90
20856;DHT22;63058;49.424;8.420;2023-07-28T08:04:48;23.60;99.90
20856;DHT22;63058;49.424;8.420;2023-07-28T08:07:14;23.60;99.90
20856;DHT22;63058;49.424;8.420;2023-07-28T08:09:41;23.60;99.90
20856;DHT22;63058;49.424;8.420;2023-07-28T08:12:08;23.70;99.90
20856;DHT22;63058;49.424;8.420;2023-07-28T08:14:34;23.70;99.90
20856;DHT22;63058;49.424;8.420;2023-07-28T08:16:59;23.70;99.90
20856;DHT22;63058;49.424;8.420;2023-07-28T08:19:25;23.80;99.90
20856;DHT22;63058;49.424;8.420;2023-07-28T08:21:51;23.80;99.90
20856;DHT22;63058;49.424;8.420;2023-07-28T08:24:18;23.80;99.90
20856;DHT22;63058;49.424;8.420;2023-07-28T08:26:43;23.80;99.90
20856;DHT22;63058;49.424;8.420;2023-07-28T08:29:09;23.90;99.90
20856;DHT22;63058;49.424;8.420;2023-07-28T08:31:34;23.90;99.90
20856;DHT22;63058;49.424;8.420;2023-07-28T08:34:00;24.00;99.90
20856;DHT22;63058;49.424;8.420;2023-07-28T08:36:26;24.00;99.90
20856;DHT22;63058;49.424;8.420;2023-07-28T08:38:52;24.00;99.90
20856;DHT22;63058;49.424;8.420;2023-07-28T08:41:19;24.10;99.90
20856;DHT22;63058;49.424;8.420;2023-07-28T08:43:44;24.20;99.90
20856;DHT22;63058;49.424;8.420;2023-07-28T08:46:10;24.30;99.90
20856;DHT22;63058;49.424;8.420;2023-07-28T08:48:36;24.40;99.90
20856;DHT22;63058;49.424;8.420;2023-07-28T08:51:02;24.50;99.90
20856;DHT22;63058;49.424;8.420;2023-07-28T08:53:29;24.60;99.90
20856;DHT22;63058;49.424;8.420;2023-07-28T08:55:56;24.60;99.90
20856;DHT22;63058;49.424;8.420;2023-07-28T08:58:22;24.70;99.90
20856;DHT22;63058;49.424;8.420;2023-07-28T09:00:52;24.80;99.90
20856;DHT22;63058;49.424;8.420;2023-07-28T09:03:18;24.80;99.90
20856;DHT22;63058;49.424;8.420;2023-07-28T09:05:45;24.90;99.90
20856;DHT22;63058;49.424;8.420;2023-07-28T09:08:16;24.90;99.90
20856;DHT22;63058;49.424;8.420;2023-07-28T09:10:49;25.00;99.90
20856;DHT22;63058;49.424;8.420;2023-07-28T09:13:16;25.10;99.90
20856;DHT22;63058;49.424;8.420;2023-07-28T09:15:42;25.20;99.90
20856;DHT22;63058;49.424;8.420;2023-07-28T09:18:12;25.30;99.90
20856;DHT22;63058;49.424;8.420;2023-07-28T09:20:39;25.40;99.90
20856;DHT22;63058;49.424;8.420;2023-07-28T09:23:07;25.40;99.90
20856;DHT22;63058;49.424;8.420;2023-07-28T09:25:34;25.50;99.90
20856;DHT22;63058;49.424;8.420;2023-07-28T09:28:00;25.60;99.90
20856;DHT22;63058;49.424;8.420;2023-07-28T09:30:26;25.60;99.90
20856;DHT22;63058;49.424;8.420;2023-07-28T09:32:54;25.70;99.90
20856;DHT22;63058;49.424;8.420;2023-07-28T09:35:21;25.70;99.90
20856;DHT22;63058;49.424;8.420;2023-07-28T09:37:49;25.60;99.90
20856;DHT22;63058;49.424;8.420;2023-07-28T09:40:18;25.60;99.90
20856;DHT22;63058;49.424;8.420;2023-07-28T09:42:46;25.50;99.90
20856;DHT22;63058;49.424;8.420;2023-07-28T09:45:15;25.50;99.90
20856;DHT22;63058;49.424;8.420;2023-07-28T09:47:44;25.40;99.90
20856;DHT22;63058;49.424;8.420;2023-07-28T09:50:11;25.40;99.90
20856;DHT22;63058;49.424;8.420;2023-07-28T09:52:47;25.40;99.90
20856;DHT22;63058;49.424;8.420;2023-07-28T09:55:15;25.50;99.90
20856;DHT22;63058;49.424;8.420;2023-07-28T09:57:49;25.60;99.90
20856;DHT22;63058;49.424;8.420;2023-07-28T10:00:17;25.60;99.90
20856;DHT22;63058;49.424;8.420;2023-07-28T10:02:44;25.70;99.90
20856;DHT22;63058;49.424;8.420;2023-07-28T10:05:10;25.80;99.90
20856;DHT22;63058;49.424;8.420;2023-07-28T10:07:39;25.90;99.90
20856;DHT22;63058;49.424;8.420;2023-07-28T10:10:06;26.00;99.90
20856;DHT22;63058;49.424;8.420;2023-07-28T10:12:46;26.00;99.90
20856;DHT22;63058;49.424;8.420;2023-07-28T10:15:14;26.10;99.90
20856;DHT22;63058;49.424;8.420;2023-07-28T10:17:45;26.10;99.90
20856;DHT22;63058;49.424;8.420;2023-07-28T10:20:32;26.20;99.90
20856;DHT22;63058;49.424;8.420;2023-07-28T10:25:37;26.20;99.90
20856;DHT22;63058;49.424;8.420;2023-07-28T10:28:07;26.20;99.90
20856;DHT22;63058;49.424;8.420;2023-07-28T10:30:38;26.20;99.90
20856;DHT22;63058;49.424;8.420;2023-07-28T10:33:35;26.20;99.90
20856;DHT22;63058;49.424;8.420;2023-07-28T10:36:17;26.20;99.90
20856;DHT22;63058;49.424;8.420;2023-07-28T10:38:43;26.20;99.90
20856;DHT22;63058;49.424;8.420;2023-07-28T10:41:17;26.20;99.90
20856;DHT22;63058;49.424;8.420;2023-07-28T10:43:44;26.20;99.90
20856;DHT22;63058;49.424;8.420;2023-07-28T10:46:14;26.20;99.90
20856;DHT22;63058;49.424;8.420;2023-07-28T10:48:45;26.20;99.90
20856;DHT22;63058;49.424;8.420;2023-07-28T10:51:12;26.20;99.90
20856;DHT22;63058;49.424;8.420;2023-07-28T10:53:38;26.20;99.90
20856;DHT22;63058;49.424;8.420;2023-07-28T10:56:04;26.10;99.90
20856;DHT22;63058;49.424;8.420;2023-07-28T10:58:33;26.10;99.90
20856;DHT22;63058;49.424;8.420;2023-07-28T11:01:00;26.00;99.90
20856;DHT22;63058;49.424;8.420;2023-07-28T11:03:28;26.00;99.90
20856;DHT22;63058;49.424;8.420;2023-07-28T11:05:54;25.90;99.90
20856;DHT22;63058;49.424;8.420;2023-07-28T11:08:20;25.90;99.90
20856;DHT22;63058;49.424;8.420;2023-07-28T11:10:46;25.90;99.90
20856;DHT22;63058;49.424;8.420;2023-07-28T11:13:12;25.90;99.90
20856;DHT22;63058;49.424;8.420;2023-07-28T11:15:38;25.90;99.90
20856;DHT22;63058;49.424;8.420;2023-07-28T11:18:04;25.90;99.90
20856;DHT22;63058;49.424;8.420;2023-07-28T11:20:30;25.90;99.90
20856;DHT22;63058;49.424;8.420;2023-07-28T11:22:58;25.90;99.90
20856;DHT22;63058;49.424;8.420;2023-07-28T11:25:25;25.90;99.90
20856;DHT22;63058;49.424;8.420;2023-07-28T11:27:51;25.90;99.90
20856;DHT22;63058;49.424;8.420;2023-07-28T11:30:19;25.80;99.90
20856;DHT22;63058;49.424;8.420;2023-07-28T11:32:47;25.80;99.90
20856;DHT22;63058;49.424;8.420;2023-07-28T11:35:16;25.80;99.90
20856;DHT22;63058;49.424;8.420;2023-07-28T11:37:43;25.80;99.90
20856;DHT22;63058;49.424;8.420;2023-07-28T11:40:10;25.90;99.90
20856;DHT22;63058;49.424;8.420;2023-07-28T11:42:41;25.90;99.90
20856;DHT22;63058;49.424;8.420;2023-07-28T11:45:10;25.90;99.90
20856;DHT22;63058;49.424;8.420;2023-07-28T11:47:37;26.00;99.90
20856;DHT22;63058;49.424;8.420;2023-07-28T11:50:03;26.10;99.90
20856;DHT22;63058;49.424;8.420;2023-07-28T11:52:34;26.20;99.90
20856;DHT22;63058;49.424;8.420;2023-07-28T11:55:05;26.40;99.90
20856;DHT22;63058;49.424;8.420;2023-07-28T11:57:32;26.50;99.90
20856;DHT22;63058;49.424;8.420;2023-07-28T11:59:59;26.60;99.90
20856;DHT22;63058;49.424;8.420;2023-07-28T12:02:29;26.60;99.90
20856;DHT22;63058;49.424;8.420;2023-07-28T12:04:56;26.60;99.90
20856;DHT22;63058;49.424;8.420;2023-07-28T12:07:33;26.60;99.90
20856;DHT22;63058;49.424;8.420;2023-07-28T12:10:06;26.60;99.90
20856;DHT22;63058;49.424;8.420;2023-07-28T12:13:04;26.50;99.90
20856;DHT22;63058;49.424;8.420;2023-07-28T12:15:31;26.50;99.90
20856;DHT22;63058;49.424;8.420;2023-07-28T12:18:07;26.50;99.90
20856;DHT22;63058;49.424;8.420;2023-07-28T12:20:41;26.40;99.90
20856;DHT22;63058;49.424;8.420;2023-07-28T12:23:08;26.40;99.90
20856;DHT22;63058;49.424;8.420;2023-07-28T12:25:36;26.30;99.90
20856;DHT22;63058;49.424;8.420;2023-07-28T12:28:02;26.20;99.90
20856;DHT22;63058;49.424;8.420;2023-07-28T12:30:28;26.20;99.90
20856;DHT22;63058;49.424;8.420;2023-07-28T12:32:54;26.10;99.90
20856;DHT22;63058;49.424;8.420;2023-07-28T12:35:20;26.00;99.90
20856;DHT22;63058;49.424;8.420;2023-07-28T12:37:51;25.90;99.90
20856;DHT22;63058;49.424;8.420;2023-07-28T12:40:18;25.80;99.90
20856;DHT22;63058;49.424;8.420;2023-07-28T12:42:45;25.70;99.90
20856;DHT22;63058;49.424;8.420;2023-07-28T12:45:11;25.60;99.90
20856;DHT22;63058;49.424;8.420;2023-07-28T12:47:37;25.50;99.90
20856;DHT22;63058;49.424;8.420;2023-07-28T12:50:03;25.40;99.90
20856;DHT22;63058;49.424;8.420;2023-07-28T12:52:29;25.20;99.90
20856;DHT22;63058;49.424;8.420;2023-07-28T12:54:55;25.10;99.90
20856;DHT22;63058;49.424;8.420;2023-07-28T12:57:21;25.00;99.90
20856;DHT22;63058;49.424;8.420;2023-07-28T12:59:46;24.80;99.90
20856;DHT22;63058;49.424;8.420;2023-07-28T13:02:12;24.60;99.90
20856;DHT22;63058;49.424;8.420;2023-07-28T13:04:38;24.50;99.90
20856;DHT22;63058;49.424;8.420;2023-07-28T13:07:03;24.30;99.90
20856;DHT22;63058;49.424;8.420;2023-07-28T13:09:29;24.10;99.90
20856;DHT22;63058;49.424;8.420;2023-07-28T13:11:55;24.00;99.90
20856;DHT22;63058;49.424;8.420;2023-07-28T13:14:20;23.80;99.90
20856;DHT22;63058;49.424;8.420;2023-07-28T13:16:46;23.80;99.90
20856;DHT22;63058;49.424;8.420;2023-07-28T13:19:12;23.70;99.90
20856;DHT22;63058;49.424;8.420;2023-07-28T13:21:38;23.60;99.90
20856;DHT22;63058;49.424;8.420;2023-07-28T13:24:03;23.50;99.90
20856;DHT22;63058;49.424;8.420;2023-07-28T13:26:29;23.50;99.90
20856;DHT22;63058;49.424;8.420;2023-07-28T13:28:55;23.50;99.90
20856;DHT22;63058;49.424;8.420;2023-07-28T13:31:22;23.40;99.90
20856;DHT22;63058;49.424;8.420;2023-07-28T13:33:48;23.30;99.90
20856;DHT22;63058;49.424;8.420;2023-07-28T13:36:13;23.30;99.90
20856;DHT22;63058;49.424;8.420;2023-07-28T13:38:39;23.30;99.90
20856;DHT22;63058;49.424;8.420;2023-07-28T13:41:06;23.30;99.90
20856;DHT22;63058;49.424;8.420;2023-07-28T13:43:33;23.20;99.90
20856;DHT22;63058;49.424;8.420;2023-07-28T13:46:04;23.20;99.90
20856;DHT22;63058;49.424;8.420;2023-07-28T13:48:33;23.20;99.90
20856;DHT22;63058;49.424;8.420;2023-07-28T13:50:59;23.20;99.90
20856;DHT22;63058;49.424;8.420;2023-07-28T13:53:25;23.20;99.90
20856;DHT22;63058;49.424;8.420;2023-07-28T13:55:51;23.20;99.90
20856;DHT22;63058;49.424;8.420;2023-07-28T13:58:17;23.30;99.90
20856;DHT22;63058;49.424;8.420;2023-07-28T14:00:43;23.20;99.90
20856;DHT22;63058;49.424;8.420;2023-07-28T14:03:09;23.20;99.90
20856;DHT22;63058;49.424;8.420;2023-07-28T14:05:35;23.20;99.90
20856;DHT22;63058;49.424;8.420;2023-07-28T14:08:01;23.20;99.90
20856;DHT22;63058;49.424;8.420;2023-07-28T14:10:27;23.20;99.90
20856;DHT22;63058;49.424;8.420;2023-07-28T14:12:52;23.20;99.90
20856;DHT22;63058;49.424;8.420;2023-07-28T14:15:18;23.20;99.90
20856;DHT22;63058;49.424;8.420;2023-07-28T14:17:44;23.20;99.90
20856;DHT22;63058;49.424;8.420;2023-07-28T14:20:10;23.20;99.90
20856;DHT22;63058;49.424;8.420;2023-07-28T14:22:36;23.20;99.90
20856;DHT22;63058;49.424;8.420;2023-07-28T14:25:02;23.20;99.90
20856;DHT22;63058;49.424;8.420;2023-07-28T14:27:28;23.20;99.90
20856;DHT22;63058;49.424;8.420;2023-07-28T14:29:53;23.20;99.90
20856;DHT22;63058;49.424;8.420;2023-07-28T14:32:19;23.20;99.90
20856;DHT22;63058;49.424;8.420;2023-07-28T14:34:45;23.20;99.90
20856;DHT22;63058;49.424;8.420;2023-07-28T14:37:10;23.20;99.90
20856;DHT22;63058;49.424;8.420;2023-07-28T14:39:36;23.10;99.90
20856;DHT22;63058;49.424;8.420;2023-07-28T14:42:02;23.20;99.90
20856;DHT22;63058;49.424;8.420;2023-07-28T14:44:28;23.10;99.90
20856;DHT22;63058;49.424;8.420;2023-07-28T14:46:55;23.10;99.90
20856;DHT22;63058;49.424;8.420;2023-07-28T14:49:20;23.10;99.90
20856;DHT22;63058;49.424;8.420;2023-07-28T14:51:46;23.10;99.90
20856;DHT22;63058;49.424;8.420;2023-07-28T14:54:12;23.00;99.90
20856;DHT22;63058;49.424;8.420;2023-07-28T14:56:37;23.00;99.90
20856;DHT22;63058;49.424;8.420;2023-07-28T14:59:03;23.00;99.90
20856;DHT22;63058;49.424;8.420;2023-07-28T15:01:29;23.00;99.90
20856;DHT22;63058;49.424;8.420;2023-07-28T15:03:55;23.00;99.90
20856;DHT22;63058;49.424;8.420;2023-07-28T15:06:20;23.00;99.90
20856;DHT22;63058;49.424;8.420;2023-07-28T15:08:46;22.90;99.90
20856;DHT22;63058;49.424;8.420;2023-07-28T15:11:13;23.00;99.90
20856;DHT22;63058;49.424;8.420;2023-07-28T15:13:39;23.00;99.90
20856;DHT22;63058;49.424;8.420;2023-07-28T15:16:05;23.00;99.90
20856;DHT22;63058;49.424;8.420;2023-07-28T15:18:31;23.00;99.90
20856;DHT22;63058;49.424;8.420;2023-07-28T15:20:57;23.00;99.90
20856;DHT22;63058;49.424;8.420;2023-07-28T15:23:25;23.00;99.90
20856;DHT22;63058;49.424;8.420;2023-07-28T15:25:51;23.10;99.90
20856;DHT22;63058;49.424;8.420;2023-07-28T15:28:18;23.10;99.90
20856;DHT22;63058;49.424;8.420;2023-07-28T15:30:45;23.10;99.90
20856;DHT22;63058;49.424;8.420;2023-07-28T15:33:19;23.10;99.90